Time;durP1;ratioP1;P1;durP2;ratioP2;P2;SDS_P1;SDS_P2;PMS_P1;PMS_P2;Temp;Humidity;BMP_temperature;BMP_pressure;BME280_temperature;BME280_humidity;BME280_pressure;Samples;Min_cycle;Max_cycle;Signal;HPM_P1;HPM_P2
2023/03/22 00:01:31;;;;;;;2.00;1.80;;;19.20;55.10;;;;;;5002827;28;20226;-70
2023/03/22 00:03:57;;;;;;;2.17;1.92;;;19.20;55.10;;;;;;5010779;28;20287;-69
2023/03/22 00:06:24;;;;;;;1.80;1.70;;;19.20;55.10;;;;;;4995441;28;20201;-69
2023/03/22 00:08:51;;;;;;;1.90;1.80;;;19.20;55.10;;;;;;4977399;28;20577;-70
2023/03/22 00:11:20;;;;;;;1.90;1.70;;;19.20;55.10;;;;;;5004240;28;20264;-70
2023/03/22 00:13:46;;;;;;;2.10;1.90;;;19.20;55.10;;;;;;4977351;28;20181;-70
2023/03/22 00:16:13;;;;;;;1.98;1.63;;;19.20;55.10;;;;;;5010798;28;20188;-69
2023/03/22 00:18:39;;;;;;;1.60;1.50;;;19.20;55.10;;;;;;5000811;28;20339;-70
2023/03/22 00:21:08;;;;;;;2.33;1.90;;;19.20;55.10;;;;;;4999410;28;20268;-70
2023/03/22 00:23:34;;;;;;;2.17;1.80;;;19.20;55.10;;;;;;4991484;28;20189;-69
2023/03/22 00:26:00;;;;;;;1.92;1.73;;;19.20;55.10;;;;;;5010394;28;20184;-69
2023/03/22 00:28:26;;;;;;;1.73;1.60;;;19.20;55.10;;;;;;5002729;28;20259;-70
2023/03/22 00:30:58;;;;;;;2.00;1.80;;;19.20;55.00;;;;;;5000125;28;20189;-70
2023/03/22 00:33:27;;;;;;;1.85;1.70;;;19.20;55.10;;;;;;5006681;28;20191;-70
2023/03/22 00:36:00;;;;;;;1.65;1.55;;;19.20;55.10;;;;;;5010392;28;20180;-70
2023/03/22 00:38:35;;;;;;;1.88;1.77;;;19.20;55.10;;;;;;5009813;28;20738;-70
2023/03/22 00:41:21;;;;;;;2.53;1.65;;;19.20;55.10;;;;;;5003313;28;20262;-70
2023/03/22 00:43:49;;;;;;;2.17;1.80;;;19.20;55.10;;;;;;5010392;28;20200;-70
2023/03/22 00:46:18;;;;;;;1.50;1.40;;;19.20;55.10;;;;;;4999774;28;20183;-70
2023/03/22 00:48:44;;;;;;;1.50;1.40;;;19.20;55.10;;;;;;5008114;28;20204;-69
2023/03/22 00:51:12;;;;;;;1.90;1.80;;;19.20;55.10;;;;;;5005596;28;20254;-70
2023/03/22 00:53:39;;;;;;;2.17;1.70;;;19.20;55.10;;;;;;5000799;28;20184;-70
2023/03/22 00:56:06;;;;;;;1.83;1.73;;;19.20;55.10;;;;;;4997693;28;20673;-70
2023/03/22 00:58:42;;;;;;;1.73;1.63;;;19.20;55.10;;;;;;4976410;28;20216;-70
2023/03/22 01:01:12;;;;;;;1.90;1.80;;;19.20;55.10;;;;;;5010151;28;20198;-70
2023/03/22 01:03:38;;;;;;;1.90;1.80;;;19.20;55.10;;;;;;5009974;28;20188;-70
2023/03/22 01:06:05;;;;;;;1.80;1.70;;;19.20;55.00;;;;;;5009929;28;20203;-70
2023/03/22 01:08:32;;;;;;;1.90;1.70;;;19.20;55.00;;;;;;5009503;28;20219;-70
2023/03/22 01:10:59;;;;;;;1.92;1.83;;;19.20;55.10;;;;;;4993798;28;20191;-70
2023/03/22 01:13:26;;;;;;;1.83;1.60;;;19.20;55.10;;;;;;4994845;28;20243;-70
2023/03/22 01:15:52;;;;;;;2.78;1.95;;;19.20;55.10;;;;;;4998314;28;20250;-69
2023/03/22 01:18:18;;;;;;;1.70;1.60;;;19.20;55.10;;;;;;4996182;28;20191;-70
2023/03/22 01:20:43;;;;;;;2.17;1.98;;;19.10;55.00;;;;;;4993741;28;20220;-69
2023/03/22 01:23:09;;;;;;;2.28;2.08;;;19.20;55.10;;;;;;4993812;28;20191;-70
2023/03/22 01:25:35;;;;;;;2.03;1.85;;;19.20;55.10;;;;;;5009518;28;20573;-70
2023/03/22 01:28:01;;;;;;;1.65;1.55;;;19.10;55.00;;;;;;5001492;28;20200;-69
2023/03/22 01:30:28;;;;;;;1.83;1.73;;;19.20;55.10;;;;;;5009617;28;20265;-69
2023/03/22 01:32:54;;;;;;;1.60;1.50;;;19.10;55.00;;;;;;5006619;28;20235;-69
2023/03/22 01:35:20;;;;;;;2.00;1.73;;;19.10;55.00;;;;;;5006824;28;20257;-69
2023/03/22 01:37:46;;;;;;;1.73;1.60;;;19.20;55.10;;;;;;4979067;28;20231;-70
2023/03/22 01:40:14;;;;;;;2.15;1.70;;;19.10;55.00;;;;;;5009514;28;20200;-69
2023/03/22 01:42:40;;;;;;;2.03;1.83;;;19.10;55.00;;;;;;5009437;28;20188;-69
2023/03/22 01:45:15;;;;;;;1.90;1.80;;;19.10;55.00;;;;;;5002108;28;20573;-69
2023/03/22 01:48:00;;;;;;;1.60;1.50;;;19.10;55.00;;;;;;4992058;28;20219;-70
2023/03/22 01:50:28;;;;;;;1.73;1.63;;;19.20;55.00;;;;;;4990129;28;20563;-70
2023/03/22 01:52:56;;;;;;;2.28;1.80;;;19.10;55.00;;;;;;4999878;28;20215;-70
2023/03/22 01:55:27;;;;;;;1.70;1.60;;;19.10;55.00;;;;;;5009584;28;20199;-70
2023/03/22 01:58:17;;;;;;;1.50;1.40;;;19.10;55.00;;;;;;5003899;28;20736;-70
2023/03/22 02:00:52;;;;;;;1.55;1.45;;;19.10;55.00;;;;;;4993017;28;20188;-69
2023/03/22 02:03:58;;;;;;;1.70;1.60;;;19.10;55.00;;;;;;5012664;28;20188;-70
2023/03/22 02:06:28;;;;;;;1.70;1.60;;;19.10;55.00;;;;;;4993606;28;20283;-69
2023/03/22 02:09:03;;;;;;;2.30;1.60;;;19.10;54.90;;;;;;5001058;28;20204;-70
2023/03/22 02:11:40;;;;;;;1.73;1.63;;;19.10;54.90;;;;;;5008484;28;20279;-69
2023/03/22 02:14:31;;;;;;;1.73;1.58;;;19.10;55.00;;;;;;5006592;28;20222;-70
2023/03/22 02:17:18;;;;;;;1.60;1.50;;;19.10;54.90;;;;;;5013834;28;20192;-70
2023/03/22 02:20:17;;;;;;;1.27;1.17;;;19.10;54.90;;;;;;5004287;28;20220;-70
2023/03/22 02:23:00;;;;;;;1.70;1.60;;;19.10;54.90;;;;;;5012763;28;20668;-70
2023/03/22 02:26:11;;;;;;;1.60;1.50;;;19.10;54.90;;;;;;4998076;28;20369;-70
2023/03/22 02:28:51;;;;;;;1.80;1.65;;;19.10;54.90;;;;;;4927441;28;20228;-70
2023/03/22 02:31:55;;;;;;;1.63;1.52;;;19.10;54.90;;;;;;5001106;28;20226;-70
2023/03/22 02:34:52;;;;;;;1.90;1.35;;;19.10;54.90;;;;;;5010478;28;20191;-70
2023/03/22 02:37:36;;;;;;;1.50;1.40;;;19.10;54.80;;;;;;4976914;28;20189;-70
2023/03/22 02:40:26;;;;;;;1.85;1.75;;;19.10;54.90;;;;;;5008955;28;20236;-70
2023/03/22 02:43:29;;;;;;;1.70;1.60;;;19.10;54.80;;;;;;5000966;28;20200;-70
2023/03/22 02:46:17;;;;;;;1.58;1.48;;;19.10;54.80;;;;;;4992548;28;20197;-70
2023/03/22 02:48:56;;;;;;;1.48;1.38;;;19.10;54.80;;;;;;4996351;28;20595;-70
2023/03/22 02:51:35;;;;;;;1.63;1.52;;;19.10;54.80;;;;;;4993326;28;20569;-70
2023/03/22 02:54:45;;;;;;;1.80;1.70;;;19.10;54.80;;;;;;5009256;28;20192;-70
2023/03/22 02:57:31;;;;;;;1.95;1.55;;;19.10;54.80;;;;;;4966480;28;20192;-70
2023/03/22 02:59:59;;;;;;;1.65;1.55;;;19.10;54.80;;;;;;5004603;28;20216;-70
2023/03/22 03:02:27;;;;;;;1.10;1.10;;;19.10;54.80;;;;;;5004773;28;20192;-70
2023/03/22 03:04:55;;;;;;;1.38;1.30;;;19.10;54.80;;;;;;5012937;28;20242;-70
2023/03/22 03:07:27;;;;;;;1.40;1.30;;;19.10;54.80;;;;;;5018376;28;20196;-70
2023/03/22 03:09:54;;;;;;;1.65;1.50;;;19.10;54.80;;;;;;5013967;28;20647;-70
2023/03/22 03:12:26;;;;;;;1.77;1.45;;;19.10;54.80;;;;;;4998965;28;20192;-70
2023/03/22 03:14:54;;;;;;;1.50;1.40;;;19.10;54.80;;;;;;5011064;28;20184;-70
2023/03/22 03:17:50;;;;;;;1.40;1.30;;;19.10;54.80;;;;;;5012625;28;20216;-70
2023/03/22 03:20:41;;;;;;;1.42;1.30;;;19.10;54.80;;;;;;5001264;28;20746;-70
2023/03/22 03:23:30;;;;;;;1.35;1.25;;;19.10;54.70;;;;;;4976862;28;20196;-70
2023/03/22 03:26:15;;;;;;;1.50;1.40;;;19.10;54.70;;;;;;5011367;28;20282;-70
2023/03/22 03:28:50;;;;;;;1.60;1.50;;;19.10;54.70;;;;;;5003998;28;20304;-70
2023/03/22 03:31:35;;;;;;;1.63;1.50;;;19.10;54.70;;;;;;5007619;28;20232;-70
2023/03/22 03:34:28;;;;;;;1.50;1.40;;;19.00;54.60;;;;;;5004450;28;20206;-70
2023/03/22 03:37:12;;;;;;;1.55;1.45;;;19.00;54.60;;;;;;5020506;28;20260;-70
2023/03/22 03:39:54;;;;;;;1.52;1.42;;;19.10;54.70;;;;;;4999679;28;20243;-70
2023/03/22 03:42:25;;;;;;;1.98;1.50;;;19.10;54.70;;;;;;4984005;28;20232;-70
2023/03/22 03:44:51;;;;;;;1.50;1.40;;;19.10;54.70;;;;;;4985424;28;20690;-70
2023/03/22 03:47:17;;;;;;;1.52;1.42;;;19.10;54.70;;;;;;5018924;28;20242;-70
2023/03/22 03:49:45;;;;;;;1.40;1.30;;;19.00;54.60;;;;;;5024649;28;20212;-70
2023/03/22 03:52:12;;;;;;;1.38;1.23;;;19.00;54.60;;;;;;4988133;28;20254;-70
2023/03/22 03:54:38;;;;;;;1.60;1.25;;;19.00;54.60;;;;;;4983828;28;20220;-70
2023/03/22 03:57:08;;;;;;;1.50;1.40;;;19.00;54.60;;;;;;5000632;28;20276;-70
2023/03/22 03:59:36;;;;;;;1.50;1.40;;;19.00;54.80;;;;;;4991057;28;20215;-70
2023/03/22 04:02:09;;;;;;;1.60;1.50;;;19.00;54.60;;;;;;5003997;28;20188;-70
2023/03/22 04:04:35;;;;;;;1.50;1.40;;;19.00;54.60;;;;;;5003586;28;20195;-69
2023/03/22 04:07:05;;;;;;;1.30;1.20;;;19.00;54.60;;;;;;5011561;28;20246;-70
2023/03/22 04:09:36;;;;;;;1.83;1.60;;;19.00;54.60;;;;;;5024317;28;20212;-69
2023/03/22 04:12:10;;;;;;;1.85;1.70;;;19.00;54.60;;;;;;5011600;28;20188;-69
2023/03/22 04:14:36;;;;;;;1.70;1.60;;;19.00;54.60;;;;;;4994811;28;20226;-69
2023/03/22 04:17:08;;;;;;;1.40;1.30;;;19.10;54.60;;;;;;5003982;28;20188;-69
2023/03/22 04:19:35;;;;;;;1.92;1.48;;;19.00;54.60;;;;;;4999237;28;20216;-69
2023/03/22 04:22:01;;;;;;;1.50;1.40;;;19.00;54.60;;;;;;5011313;28;20196;-69
2023/03/22 04:24:27;;;;;;;1.65;1.30;;;19.00;54.60;;;;;;5002227;28;20219;-70
2023/03/22 04:26:53;;;;;;;1.50;1.40;;;19.00;54.50;;;;;;4993955;28;20758;-69
2023/03/22 04:29:35;;;;;;;1.50;1.40;;;19.00;54.50;;;;;;4980694;28;20208;-69
2023/03/22 04:32:24;;;;;;;1.40;1.30;;;19.00;54.50;;;;;;4993024;28;20192;-69
2023/03/22 04:34:52;;;;;;;1.50;1.40;;;19.00;54.50;;;;;;4983693;28;20188;-70
2023/03/22 04:37:21;;;;;;;1.60;1.50;;;19.00;54.50;;;;;;5004327;28;20199;-69
2023/03/22 04:40:15;;;;;;;1.20;1.10;;;19.00;54.50;;;;;;5006274;28;20264;-69
2023/03/22 04:42:57;;;;;;;1.50;1.40;;;19.00;54.50;;;;;;5008702;28;20191;-70
2023/03/22 04:45:31;;;;;;;2.05;1.50;;;19.00;54.50;;;;;;5051726;22;20239;-69
2023/03/22 04:48:00;;;;;;;1.52;1.42;;;19.00;54.50;;;;;;5047169;28;20639;-69
2023/03/22 04:50:27;;;;;;;1.50;1.40;;;19.00;54.50;;;;;;5001696;28;20230;-69
2023/03/22 04:52:57;;;;;;;1.58;1.48;;;19.00;54.40;;;;;;5003304;28;20230;-69
2023/03/22 04:55:23;;;;;;;1.42;1.33;;;19.00;54.50;;;;;;5011429;28;20278;-69
2023/03/22 04:57:50;;;;;;;1.38;1.27;;;19.00;54.40;;;;;;4994824;28;20608;-69
2023/03/22 05:00:17;;;;;;;1.50;1.40;;;19.00;54.50;;;;;;5011721;28;20226;-69
2023/03/22 05:02:43;;;;;;;1.60;1.50;;;19.00;54.40;;;;;;5011703;28;20278;-69
2023/03/22 05:05:17;;;;;;;1.40;1.30;;;19.00;54.40;;;;;;5000461;28;20211;-69
2023/03/22 05:07:44;;;;;;;1.60;1.50;;;19.00;54.50;;;;;;4995169;28;20298;-69
2023/03/22 05:10:10;;;;;;;1.60;1.50;;;19.00;54.40;;;;;;5011490;28;20282;-69
2023/03/22 05:12:36;;;;;;;1.33;1.23;;;19.00;54.50;;;;;;5011404;28;20190;-69
2023/03/22 05:15:13;;;;;;;1.35;1.25;;;19.00;54.50;;;;;;4996340;28;20242;-69
2023/03/22 05:17:39;;;;;;;1.50;1.40;;;19.00;54.40;;;;;;5010991;28;20212;-69
2023/03/22 05:20:08;;;;;;;1.83;1.20;;;19.00;54.40;;;;;;5011288;28;20211;-69
2023/03/22 05:22:39;;;;;;;1.60;1.50;;;19.00;54.40;;;;;;5010999;28;20192;-69
2023/03/22 05:25:07;;;;;;;1.50;1.40;;;19.00;54.40;;;;;;5010655;28;20269;-69
2023/03/22 05:27:33;;;;;;;1.77;1.67;;;19.00;54.40;;;;;;5010635;28;20212;-68
2023/03/22 05:30:14;;;;;;;1.55;1.45;;;19.00;54.40;;;;;;5005084;28;20206;-69
2023/03/22 05:32:48;;;;;;;2.08;1.95;;;19.00;54.40;;;;;;5010961;28;20183;-69
2023/03/22 05:35:14;;;;;;;1.85;1.75;;;19.00;54.40;;;;;;5006030;28;20350;-69
2023/03/22 05:37:45;;;;;;;1.70;1.60;;;19.00;54.40;;;;;;4995227;28;20199;-69
2023/03/22 05:40:13;;;;;;;1.65;1.55;;;19.00;54.30;;;;;;5014682;28;20203;-69
2023/03/22 05:42:44;;;;;;;1.75;1.65;;;19.00;54.40;;;;;;5005707;28;20196;-69
2023/03/22 05:45:21;;;;;;;1.95;1.70;;;19.00;54.40;;;;;;5010063;28;20216;-69
2023/03/22 05:47:56;;;;;;;1.92;1.70;;;19.00;54.40;;;;;;5012062;28;20215;-69
2023/03/22 05:50:23;;;;;;;2.05;1.95;;;19.00;54.40;;;;;;5014472;28;20659;-69
2023/03/22 05:52:50;;;;;;;1.92;1.83;;;19.00;54.40;;;;;;4997781;28;20200;-69
2023/03/22 05:55:59;;;;;;;2.95;2.30;;;19.00;54.90;;;;;;5008655;28;20603;-69
2023/03/22 05:58:30;;;;;;;2.30;2.10;;;19.00;54.30;;;;;;5014000;28;20188;-69
2023/03/22 06:01:02;;;;;;;3.47;2.05;;;19.00;54.20;;;;;;5014066;28;20210;-69
2023/03/22 06:03:48;;;;;;;2.00;1.80;;;19.00;54.40;;;;;;5014688;28;20247;-69
2023/03/22 06:06:27;;;;;;;2.30;2.10;;;19.00;54.40;;;;;;5015349;28;20188;-69
2023/03/22 06:09:06;;;;;;;2.03;1.92;;;19.00;54.40;;;;;;5014483;28;20184;-69
2023/03/22 06:11:34;;;;;;;2.13;1.92;;;19.00;54.20;;;;;;5014640;28;20184;-70
2023/03/22 06:14:01;;;;;;;2.40;2.17;;;19.00;54.20;;;;;;5014118;28;20235;-69
2023/03/22 06:16:39;;;;;;;1.83;1.73;;;19.00;54.30;;;;;;5014301;28;20191;-68
2023/03/22 06:19:05;;;;;;;2.15;2.05;;;19.00;54.20;;;;;;5011512;28;20192;-70
2023/03/22 06:21:31;;;;;;;1.80;1.70;;;19.00;54.20;;;;;;5007733;28;20192;-70
2023/03/22 06:23:57;;;;;;;2.10;2.00;;;19.00;54.20;;;;;;5013528;28;20695;-70
2023/03/22 06:26:23;;;;;;;2.30;2.10;;;19.00;54.20;;;;;;5014443;28;20188;-71
2023/03/22 06:28:49;;;;;;;2.30;2.10;;;19.00;54.20;;;;;;5014315;28;20184;-70
2023/03/22 06:31:16;;;;;;;2.40;2.20;;;19.10;54.30;;;;;;5014218;28;20184;-69
2023/03/22 06:33:51;;;;;;;1.95;1.85;;;19.10;54.30;;;;;;5005599;28;20298;-70
2023/03/22 06:36:26;;;;;;;2.20;2.05;;;19.10;54.30;;;;;;5013779;28;20683;-69
2023/03/22 06:39:12;;;;;;;2.30;2.10;;;19.00;54.10;;;;;;5013594;28;20200;-70
2023/03/22 06:41:40;;;;;;;2.42;1.90;;;19.00;54.20;;;;;;5001274;28;20184;-69
2023/03/22 06:44:06;;;;;;;2.20;2.10;;;19.10;54.20;;;;;;5002047;28;20226;-69
2023/03/22 06:46:43;;;;;;;2.50;2.20;;;19.10;54.20;;;;;;5008706;28;20208;-70
2023/03/22 06:49:21;;;;;;;2.53;2.33;;;19.10;54.20;;;;;;4998257;28;20648;-70
2023/03/22 06:51:50;;;;;;;2.50;2.10;;;19.10;54.10;;;;;;5013870;28;20234;-69
2023/03/22 06:54:16;;;;;;;2.53;2.33;;;19.20;54.20;;;;;;5013124;28;20212;-70
2023/03/22 06:56:41;;;;;;;3.08;2.00;;;19.20;54.20;;;;;;5008672;28;20235;-70
2023/03/22 06:59:07;;;;;;;4.05;2.10;;;19.20;54.10;;;;;;5003709;28;20234;-69
2023/03/22 07:01:33;;;;;;;2.10;1.90;;;19.20;54.00;;;;;;5013363;28;20184;-69
2023/03/22 07:03:59;;;;;;;2.28;2.00;;;19.30;54.10;;;;;;5013299;28;20214;-69
2023/03/22 07:06:27;;;;;;;2.97;2.42;;;19.20;54.00;;;;;;5008730;28;20189;-70
2023/03/22 07:08:54;;;;;;;2.30;2.10;;;19.30;54.10;;;;;;5009774;28;20192;-70
2023/03/22 07:11:25;;;;;;;1.83;1.73;;;19.30;54.00;;;;;;5013060;28;20180;-69
2023/03/22 07:13:57;;;;;;;2.53;2.15;;;19.30;54.00;;;;;;5013212;28;20226;-70
2023/03/22 07:16:24;;;;;;;3.88;2.10;;;19.30;54.00;;;;;;5005148;28;20663;-70
2023/03/22 07:18:53;;;;;;;1.80;1.70;;;19.40;54.00;;;;;;5012931;28;20230;-69
2023/03/22 07:21:19;;;;;;;2.03;1.83;;;19.30;54.00;;;;;;5004764;28;20188;-69
2023/03/22 07:23:49;;;;;;;2.28;2.08;;;19.40;54.00;;;;;;5012829;28;20211;-70
2023/03/22 07:26:19;;;;;;;3.17;1.70;;;19.40;54.00;;;;;;5012783;28;20184;-70
2023/03/22 07:28:47;;;;;;;2.60;2.40;;;19.40;54.00;;;;;;5004391;28;20239;-69
2023/03/22 07:31:14;;;;;;;2.22;2.00;;;19.40;54.00;;;;;;5012587;28;20279;-69
2023/03/22 07:34:02;;;;;;;3.40;2.17;;;19.40;54.00;;;;;;4999126;28;20218;-69
2023/03/22 07:36:32;;;;;;;3.40;2.30;;;19.40;54.00;;;;;;5004919;28;20195;-70
2023/03/22 07:38:58;;;;;;;2.50;1.92;;;19.40;54.00;;;;;;5004379;28;20185;-70
2023/03/22 07:41:29;;;;;;;1.90;1.75;;;19.50;54.00;;;;;;4996977;28;20193;-71
2023/03/22 07:44:15;;;;;;;2.28;2.00;;;19.50;54.10;;;;;;4996678;28;20251;-69
2023/03/22 07:46:47;;;;;;;2.92;1.73;;;19.50;54.10;;;;;;4992941;28;20212;-70
2023/03/22 07:49:20;;;;;;;2.38;2.17;;;19.50;54.60;;;;;;4995676;28;20561;-70
2023/03/22 07:52:05;;;;;;;1.83;1.73;;;19.60;54.10;;;;;;5006190;28;20350;-70
2023/03/22 07:54:31;;;;;;;1.80;1.70;;;19.60;54.10;;;;;;4994592;28;20267;-70
2023/03/22 07:56:58;;;;;;;2.00;1.90;;;19.60;54.10;;;;;;4991494;28;20180;-70
2023/03/22 07:59:24;;;;;;;3.97;1.83;;;19.60;54.10;;;;;;4997246;28;20183;-70
2023/03/22 08:01:50;;;;;;;1.83;1.73;;;19.60;54.10;;;;;;4994538;28;20181;-70
2023/03/22 08:04:33;;;;;;;2.78;2.00;;;19.60;54.10;;;;;;4998227;28;20200;-69
2023/03/22 08:07:18;;;;;;;2.20;1.88;;;19.60;54.10;;;;;;4994134;28;20378;-69
2023/03/22 08:09:46;;;;;;;1.85;1.75;;;19.70;54.20;;;;;;4996680;28;20192;-70
2023/03/22 08:12:12;;;;;;;1.60;1.50;;;19.70;54.20;;;;;;4998889;28;20218;-70
2023/03/22 08:14:39;;;;;;;1.85;1.70;;;19.70;54.10;;;;;;4996890;28;20208;-70
2023/03/22 08:17:12;;;;;;;2.63;1.80;;;19.70;54.10;;;;;;4998631;28;20189;-69
2023/03/22 08:19:38;;;;;;;2.10;1.50;;;19.70;54.10;;;;;;4980570;28;20196;-70
2023/03/22 08:22:06;;;;;;;1.65;1.55;;;19.70;54.10;;;;;;4997818;28;20644;-70
2023/03/22 08:24:51;;;;;;;2.70;1.83;;;19.70;54.10;;;;;;4996861;28;20216;-72
2023/03/22 08:27:26;;;;;;;1.70;1.60;;;19.70;54.20;;;;;;4998547;28;20707;-71
2023/03/22 08:29:52;;;;;;;1.70;1.60;;;19.70;54.20;;;;;;4996243;28;20210;-69
2023/03/22 08:32:18;;;;;;;1.70;1.60;;;19.70;54.20;;;;;;4999184;28;20226;-70
2023/03/22 08:34:44;;;;;;;1.65;1.55;;;19.70;54.20;;;;;;4980406;28;20208;-71
2023/03/22 08:37:11;;;;;;;2.28;1.50;;;19.70;54.20;;;;;;4996384;28;20193;-70
2023/03/22 08:39:38;;;;;;;1.90;1.70;;;19.70;54.30;;;;;;4994211;28;20181;-70
2023/03/22 08:42:25;;;;;;;2.00;1.45;;;19.70;54.40;;;;;;4999736;28;20618;-71
2023/03/22 08:44:51;;;;;;;1.50;1.40;;;19.70;54.40;;;;;;5011482;28;20220;-69
2023/03/22 08:47:19;;;;;;;1.52;1.40;;;19.70;54.40;;;;;;5011077;28;20219;-71
2023/03/22 08:49:47;;;;;;;1.88;1.60;;;19.70;54.40;;;;;;4997432;28;20188;-71
2023/03/22 08:52:25;;;;;;;2.17;1.55;;;19.70;54.40;;;;;;5010024;28;20734;-71
2023/03/22 08:55:16;;;;;;;2.38;1.80;;;19.70;54.50;;;;;;5009986;28;20290;-71
2023/03/22 08:58:01;;;;;;;1.73;1.63;;;19.80;54.40;;;;;;5001519;28;20677;-70
2023/03/22 09:00:46;;;;;;;1.58;1.42;;;19.70;54.40;;;;;;5010049;28;20334;-71
2023/03/22 09:03:17;;;;;;;1.92;1.50;;;19.70;54.50;;;;;;5010164;28;20192;-70
2023/03/22 09:05:43;;;;;;;1.83;1.55;;;19.70;54.60;;;;;;5010795;28;20271;-71
2023/03/22 09:08:10;;;;;;;1.77;1.52;;;19.70;54.60;;;;;;5010189;28;20236;-71
2023/03/22 09:10:50;;;;;;;1.60;1.50;;;19.80;54.70;;;;;;5010024;28;20176;-70
2023/03/22 09:13:16;;;;;;;2.88;1.83;;;19.70;54.50;;;;;;5010324;28;20675;-70
2023/03/22 09:15:51;;;;;;;1.85;1.55;;;19.70;54.70;;;;;;4995003;28;20180;-72
2023/03/22 09:18:26;;;;;;;1.58;1.10;;;19.70;54.60;;;;;;5010695;28;20579;-71
2023/03/22 09:20:56;;;;;;;2.28;1.50;;;19.80;54.60;;;;;;5011214;28;20676;-71
2023/03/22 09:23:29;;;;;;;1.38;1.27;;;19.70;54.50;;;;;;5003193;28;20204;-71
2023/03/22 09:25:55;;;;;;;1.88;1.20;;;19.70;54.60;;;;;;5002672;28;20275;-71
2023/03/22 09:28:24;;;;;;;1.83;1.48;;;19.80;54.70;;;;;;5010484;28;20215;-71
2023/03/22 09:30:51;;;;;;;1.67;1.58;;;19.70;54.60;;;;;;5002615;28;20258;-71
2023/03/22 09:33:17;;;;;;;1.90;1.60;;;19.70;54.70;;;;;;5002432;28;20671;-71
2023/03/22 09:35:47;;;;;;;1.50;1.40;;;19.80;54.80;;;;;;5004660;28;20275;-70
2023/03/22 09:38:14;;;;;;;1.42;1.33;;;19.70;55.00;;;;;;4994908;28;20263;-70
2023/03/22 09:40:59;;;;;;;1.48;1.33;;;19.70;55.40;;;;;;5005079;28;20200;-69
2023/03/22 09:43:35;;;;;;;1.35;1.23;;;19.70;54.90;;;;;;5002302;28;20207;-71
2023/03/22 09:46:06;;;;;;;1.55;1.27;;;19.70;55.00;;;;;;5010580;28;20192;-70
2023/03/22 09:48:39;;;;;;;1.50;1.40;;;19.70;54.90;;;;;;4995028;28;20245;-70
2023/03/22 09:51:17;;;;;;;2.22;1.50;;;19.70;54.80;;;;;;5009849;28;20184;-69
2023/03/22 09:53:42;;;;;;;2.22;1.30;;;19.80;55.10;;;;;;5009966;28;20214;-71
2023/03/22 09:56:26;;;;;;;1.52;1.42;;;19.70;54.90;;;;;;5009985;28;20185;-70
2023/03/22 09:59:05;;;;;;;1.08;0.93;;;19.70;54.90;;;;;;5009798;28;20247;-71
2023/03/22 10:01:55;;;;;;;1.77;1.30;;;19.70;55.00;;;;;;4978406;28;20188;-71
2023/03/22 10:04:57;;;;;;;1.40;1.20;;;19.70;55.00;;;;;;5009899;28;20255;-70
2023/03/22 10:08:17;;;;;;;1.70;1.35;;;19.70;55.10;;;;;;5009689;28;20240;-70
2023/03/22 10:10:43;;;;;;;1.35;1.10;;;19.70;54.70;;;;;;5009967;28;20200;-71
2023/03/22 10:13:25;;;;;;;1.40;1.30;;;19.70;55.00;;;;;;4993610;28;20196;-71
2023/03/22 10:16:00;;;;;;;1.20;1.10;;;19.70;55.00;;;;;;5009835;28;20195;-71
2023/03/22 10:18:35;;;;;;;1.40;1.30;;;19.70;55.00;;;;;;4993521;28;20191;-70
2023/03/22 10:21:07;;;;;;;1.65;1.38;;;19.70;54.90;;;;;;5011142;28;20234;-70
2023/03/22 10:23:38;;;;;;;1.20;1.10;;;19.70;54.60;;;;;;4980899;28;20224;-71
2023/03/22 10:26:07;;;;;;;1.75;1.40;;;19.70;54.80;;;;;;5013232;28;20188;-71
2023/03/22 10:28:33;;;;;;;1.35;1.25;;;19.70;54.80;;;;;;4981600;28;20265;-70
2023/03/22 10:30:59;;;;;;;1.40;1.30;;;19.80;54.70;;;;;;5013388;28;20200;-70
2023/03/22 10:33:49;;;;;;;1.55;1.42;;;19.80;54.80;;;;;;5005389;28;20237;-70
2023/03/22 10:36:19;;;;;;;1.08;0.98;;;19.80;55.00;;;;;;5014755;28;20613;-71
2023/03/22 10:39:27;;;;;;;1.23;1.13;;;19.80;54.80;;;;;;5013506;28;20279;-71
2023/03/22 10:41:55;;;;;;;2.70;1.17;;;19.70;54.70;;;;;;5013473;28;20188;-70
2023/03/22 10:44:25;;;;;;;1.45;1.35;;;19.80;55.10;;;;;;5042297;22;20242;-70
2023/03/22 10:46:54;;;;;;;2.05;1.48;;;19.80;54.70;;;;;;5039811;28;20337;-70
2023/03/22 10:49:42;;;;;;;1.35;1.00;;;19.80;54.50;;;;;;5020378;28;20203;-70
2023/03/22 10:52:29;;;;;;;1.20;1.10;;;19.80;54.50;;;;;;5023187;28;20199;-70
2023/03/22 10:54:56;;;;;;;2.85;1.30;;;19.80;54.80;;;;;;5031804;28;20218;-69
2023/03/22 10:57:24;;;;;;;1.38;1.20;;;19.80;54.90;;;;;;5023647;28;20267;-71
2023/03/22 10:59:55;;;;;;;3.33;1.40;;;19.80;54.70;;;;;;5026668;28;20192;-71
2023/03/22 11:02:29;;;;;;;1.77;1.20;;;19.80;54.80;;;;;;5039309;28;20191;-70
2023/03/22 11:05:06;;;;;;;2.25;1.20;;;19.80;54.90;;;;;;5021725;28;20242;-70
2023/03/22 11:07:43;;;;;;;1.08;1.08;;;19.80;54.60;;;;;;5041471;28;20212;-69
2023/03/22 11:10:09;;;;;;;1.67;1.10;;;19.80;54.50;;;;;;5024191;28;20179;-71
2023/03/22 11:12:39;;;;;;;1.50;1.10;;;19.80;54.70;;;;;;5021983;28;20224;-71
2023/03/22 11:15:17;;;;;;;0.98;0.93;;;19.80;54.60;;;;;;5005014;28;20206;-71
2023/03/22 11:17:43;;;;;;;1.80;1.00;;;19.80;54.50;;;;;;5030253;28;20218;-70
2023/03/22 11:20:18;;;;;;;1.17;1.15;;;19.80;54.50;;;;;;5037801;28;20215;-71
2023/03/22 11:22:48;;;;;;;1.35;1.20;;;19.80;54.40;;;;;;5045357;28;20184;-70
2023/03/22 11:25:21;;;;;;;1.70;1.20;;;19.80;54.60;;;;;;5022140;28;20215;-71
2023/03/22 11:28:15;;;;;;;1.45;1.10;;;19.80;54.70;;;;;;5017660;28;20249;-69
2023/03/22 11:31:11;;;;;;;2.30;1.30;;;19.80;54.80;;;;;;5025427;28;20678;-71
2023/03/22 11:33:53;;;;;;;1.05;0.90;;;19.80;54.90;;;;;;5018892;28;20258;-69
2023/03/22 11:36:19;;;;;;;1.15;1.05;;;19.80;54.30;;;;;;5021603;28;20238;-68
2023/03/22 11:38:45;;;;;;;1.33;1.23;;;19.80;54.30;;;;;;5040988;28;20195;-70
2023/03/22 11:41:21;;;;;;;1.27;1.17;;;19.80;54.30;;;;;;5039725;28;20184;-70
2023/03/22 11:43:53;;;;;;;0.95;0.90;;;19.80;54.40;;;;;;5024047;28;20233;-71
2023/03/22 11:46:19;;;;;;;2.08;1.00;;;19.80;54.50;;;;;;5038342;28;20188;-71
2023/03/22 11:48:49;;;;;;;1.60;1.23;;;19.80;54.60;;;;;;5036228;28;20212;-71
2023/03/22 11:51:29;;;;;;;1.17;0.90;;;19.80;54.50;;;;;;5018588;28;20184;-71
2023/03/22 11:54:31;;;;;;;1.38;1.25;;;19.80;54.90;;;;;;5026331;28;20273;-71
2023/03/22 11:57:03;;;;;;;1.45;1.35;;;19.80;54.60;;;;;;5009130;28;20187;-71
2023/03/22 11:59:52;;;;;;;1.23;1.13;;;19.80;54.00;;;;;;5038603;28;20195;-71
2023/03/22 12:02:23;;;;;;;1.40;1.00;;;19.80;54.00;;;;;;5042631;28;20664;-71
2023/03/22 12:05:00;;;;;;;1.80;1.10;;;19.80;54.10;;;;;;5037637;28;20232;-71
2023/03/22 12:07:30;;;;;;;0.90;0.90;;;19.80;54.20;;;;;;5024822;28;20203;-71
2023/03/22 12:10:11;;;;;;;3.85;0.90;;;19.80;54.50;;;;;;5023985;28;20190;-71
2023/03/22 12:12:52;;;;;;;1.65;1.00;;;19.90;54.70;;;;;;5029967;28;20183;-71
2023/03/22 12:15:40;;;;;;;1.10;1.00;;;19.80;54.30;;;;;;5022840;28;20227;-71
2023/03/22 12:18:21;;;;;;;0.90;0.90;;;19.80;54.20;;;;;;5020663;28;20188;-71
2023/03/22 12:20:54;;;;;;;1.10;1.00;;;19.80;53.80;;;;;;5039870;28;20721;-70
2023/03/22 12:23:25;;;;;;;1.45;0.80;;;19.90;54.00;;;;;;5044901;28;20195;-71
2023/03/22 12:26:09;;;;;;;1.10;0.93;;;19.90;54.40;;;;;;5026965;28;20321;-70
2023/03/22 12:29:00;;;;;;;1.58;1.20;;;19.90;54.40;;;;;;5025072;28;20242;-70
2023/03/22 12:31:37;;;;;;;1.10;1.00;;;19.90;54.70;;;;;;5037372;28;20574;-71
2023/03/22 12:34:12;;;;;;;0.93;0.93;;;19.90;54.60;;;;;;5025167;28;20241;-70
2023/03/22 12:36:48;;;;;;;1.13;1.00;;;19.90;54.50;;;;;;5003124;28;20190;-71
2023/03/22 12:39:37;;;;;;;0.90;0.90;;;19.80;54.00;;;;;;4997880;28;20183;-71
2023/03/22 12:42:22;;;;;;;1.15;0.95;;;19.90;54.00;;;;;;5026225;28;20186;-70
2023/03/22 12:44:50;;;;;;;1.40;0.90;;;19.90;54.00;;;;;;5026749;28;20208;-70
2023/03/22 12:47:32;;;;;;;2.10;1.00;;;19.90;54.50;;;;;;5035441;28;20215;-70
2023/03/22 12:50:25;;;;;;;0.90;0.90;;;19.90;54.40;;;;;;5035626;28;20249;-70
2023/03/22 12:52:56;;;;;;;1.00;0.90;;;19.90;54.20;;;;;;5018830;28;20198;-70
2023/03/22 12:55:26;;;;;;;1.08;0.98;;;19.90;54.10;;;;;;5026339;28;20265;-71
2023/03/22 12:57:53;;;;;;;1.10;1.00;;;19.90;54.20;;;;;;5038846;28;20191;-71
2023/03/22 13:00:51;;;;;;;2.88;0.98;;;19.90;53.80;;;;;;5030495;28;20195;-71
2023/03/22 13:03:35;;;;;;;1.08;0.95;;;19.90;54.30;;;;;;5017232;28;20199;-70
2023/03/22 13:06:06;;;;;;;1.33;0.98;;;19.90;54.20;;;;;;5027229;28;20199;-70
2023/03/22 13:09:14;;;;;;;1.42;1.00;;;19.90;54.60;;;;;;5020951;28;20219;-71
2023/03/22 13:11:42;;;;;;;1.38;1.02;;;19.90;54.40;;;;;;5038976;28;20195;-71
2023/03/22 13:14:32;;;;;;;1.55;0.80;;;19.90;54.00;;;;;;5026948;28;20211;-71
2023/03/22 13:16:59;;;;;;;1.63;0.98;;;19.90;54.20;;;;;;5025866;28;20784;-70
2023/03/22 13:19:32;;;;;;;1.33;0.93;;;19.90;54.50;;;;;;5028611;28;20191;-70
2023/03/22 13:22:48;;;;;;;1.08;0.98;;;19.90;54.00;;;;;;5024609;28;20192;-70
2023/03/22 13:25:17;;;;;;;1.00;0.98;;;19.90;54.40;;;;;;5026467;28;20203;-72